• Join FlightAware (Why Join?)
  • Login
  • US Flag 
12:46AM EDT


 

Airport Tracker/Info


-or-


 

Live Flight TrackerFlight Track Log ✈ N13HM ✈ 15-Jul-2013 ✈ KMMU - KSAV

Flight Track Log - Related Links

Times and Time Zones

All times are in EDT time to prevent confusion due to time zone crossing. See the N13HM flight status page for this flight to view local times or setup timezone preferences in your user account.

Time Position Orientation Groundspeed Altitude Reporting Facility
EDT Latitude Longitude Course Direction KTS MPH feet Rate Location/Type
08:48AM 40.7500 -74.4333 159° South 133 153 2,000  Level New York TRACON
08:48AM 40.7333 -74.3833 114° Southeast 136 157 3,000 960 Climbing New York TRACON
08:49AM 40.7333 -74.3333 90° East 135 155 3,900 840 Climbing New York TRACON
08:50AM 40.7333 -74.2833 90° East 136 157 4,700 540 Climbing New York TRACON
08:51AM 40.7000 -74.2500 143° Southeast 174 200 5,000 120 Climbing New York TRACON
08:52AM 40.6500 -74.2667 194° South 190 219 5,000  Level New York TRACON
08:53AM 40.5567 -74.6323 159° South  Level Estimated
08:53AM 40.6000 -74.2667 180° South 193 222 5,000  Level New York TRACON
08:54AM 40.5500 -74.2667 180° South 187 215 5,000  Level New York TRACON
08:57AM 40.4342 -74.2203 163° South 185 213 5,000  Level New York Center
08:58AM 40.3847 -74.1961 160° South 191 220 5,000  Level New York Center
08:59AM 40.3417 -74.1747 159° South 185 213 5,000  Level New York Center
09:00AM 40.2897 -74.1667 173° South 185 213 5,000 480 Level New York Center
09:01AM 40.2483 -74.1619 175° South 171 197 6,000 840 Climbing New York Center
09:02AM 40.2131 -74.1575 175° South 151 174 6,700 720 Climbing New York Center
09:03AM 40.1708 -74.1744 197° South 139 160 7,500 720 Climbing New York Center
09:04AM 40.1350 -74.1889 197° South 144 166 8,200 600 Climbing New York Center
09:05AM 40.1011 -74.2064 202° Southwest 144 166 8,800 540 Climbing New York Center
09:06AM 40.0672 -74.2236 201° Southwest 144 166 9,400 480 Climbing New York Center
09:08AM 39.9833 -74.2703 203° Southwest 149 171 10,500 480 Climbing Washington Center
09:09AM 39.9483 -74.3006 214° Southwest 149 171 11,000 480 Climbing Washington Center
09:10AM 39.9172 -74.3308 217° Southwest 149 171 11,500 420 Climbing Washington Center
09:11AM 39.8864 -74.3611 217° Southwest 149 171 11,900 180 Climbing Washington Center
09:12AM 39.8533 -74.3942 218° Southwest 149 171 11,900  Level Washington Center
09:13AM 39.8119 -74.4300 214° Southwest 160 184 11,900  Level Washington Center
09:14AM 39.7728 -74.4711 219° Southwest 177 204 11,900  Level Washington Center
09:15AM 39.7314 -74.5094 215° Southwest 183 211 11,900  Level Washington Center
09:16AM 39.6903 -74.5481 216° Southwest 183 211 11,900  Level Washington Center
09:17AM 39.6508 -74.5864 217° Southwest 183 211 11,900  Level Washington Center
09:18AM 39.6117 -74.6219 215° Southwest 183 211 11,900  Level Washington Center
09:19AM 39.5722 -74.6600 217° Southwest 183 211 11,900  Level Washington Center
09:20AM 39.5331 -74.6983 217° Southwest 178 205 11,900  Level Washington Center
09:21AM 39.4936 -74.7336 215° Southwest 178 205 11,900  Level Washington Center
09:22AM 39.4544 -74.7692 215° Southwest 178 205 11,900  Level Washington Center
09:23AM 39.4150 -74.8044 215° Southwest 178 205 12,000  Climbing Washington Center
09:24AM 39.3778 -74.8425 218° Southwest 178 205 12,000  Level Washington Center
09:25AM 39.3364 -74.8806 215° Southwest 178 205 12,000  Level Washington Center
09:26AM 39.2969 -74.9183 217° Southwest 178 205 12,000  Level Washington Center
09:27AM 39.2575 -74.9536 215° Southwest 178 205 12,000  Level Washington Center
09:28AM 39.2117 -74.9756 200° South 178 205 12,100  Climbing Washington Center
09:29AM 39.1681 -75.0053 208° Southwest 173 199 12,000 -60 Descending Washington Center
09:30AM 39.1244 -75.0297 204° Southwest 173 199 12,000  Level Washington Center
09:31AM 39.0789 -75.0542 203° Southwest 173 199 12,000  Level Washington Center
09:32AM 39.0350 -75.0786 203° Southwest 173 199 12,000  Level Washington Center
09:33AM 38.9914 -75.1056 206° Southwest 173 199 12,000  Level Washington Center
09:34AM 38.9458 -75.1325 205° Southwest 173 199 12,000 -60 Level Washington Center
09:35AM 38.9019 -75.1569 203° Southwest 173 199 11,900 -60 Descending Washington Center
09:36AM 38.8583 -75.1839 206° Southwest 173 199 11,900  Level Washington Center
09:37AM 38.8125 -75.2081 202° Southwest 173 199 12,000  Climbing Washington Center
09:38AM 38.7689 -75.2350 206° Southwest 173 199 12,000  Level Washington Center
09:39AM 38.7253 -75.2617 206° Southwest 173 199 12,000  Level Washington Center
09:40AM 38.6814 -75.2911 208° Southwest 173 199 12,000  Level Washington Center
09:41AM 38.6397 -75.3181 207° Southwest 173 199 12,000  Level Washington Center
09:42AM 38.5961 -75.3472 208° Southwest 179 206 12,000  Level Washington Center
09:43AM 38.5525 -75.3739 206° Southwest 179 206 12,000  Level Washington Center
09:44AM 38.5108 -75.4033 209° Southwest 179 206 12,000  Level Washington Center
09:45AM 38.4669 -75.4300 205° Southwest 179 206 12,000  Level Washington Center
09:46AM 38.4233 -75.4592 208° Southwest 179 206 12,000  Level Washington Center
09:47AM 38.3794 -75.4858 205° Southwest 179 206 12,000  Level Washington Center
09:48AM 38.3358 -75.5122 205° Southwest 179 206 12,000  Level Washington Center
09:49AM 38.2858 -75.5389 203° Southwest 179 206 12,000  Level Washington Center
09:50AM 38.2481 -75.5706 213° Southwest 184 212 12,000  Level Washington Center
09:51AM 38.2044 -75.5997 208° Southwest 179 206 12,000  Level Washington Center
09:52AM 38.1586 -75.6286 206° Southwest 179 206 12,000  Level Washington Center
09:53AM 38.1189 -75.6603 212° Southwest 184 212 12,000  Level Washington Center
09:54AM 38.0772 -75.6894 209° Southwest 184 212 12,000  Level Washington Center
09:55AM 38.0439 -75.7208 217° Southwest 178 205 12,000  Level Washington Center
09:56AM 38.0019 -75.7525 211° Southwest 173 199 12,000  Level Washington Center
09:57AM 37.9603 -75.7814 209° Southwest 173 199 12,000  Level Washington Center
09:58AM 37.9186 -75.8075 206° Southwest 168 193 12,000  Level Washington Center
09:59AM 37.8706 -75.8392 207° Southwest 173 199 12,000  Level Washington Center
10:00AM 37.8392 -75.8653 213° Southwest 174 200 12,000  Level Washington Center
10:01AM 37.7806 -75.9097 211° Southwest 175 201 12,000  Level Washington Center
10:02AM 37.7494 -75.9306 208° Southwest 178 205 12,000  Level Washington Center
10:03AM 37.6928 -75.9697 209° Southwest 173 199 12,000  Level Washington Center
10:04AM 37.6658 -75.9881 208° Southwest 178 205 12,000  Level Washington Center
10:05AM 37.6092 -76.0269 209° Southwest 173 199 12,000  Level Washington Center
10:06AM 37.5819 -76.0503 214° Southwest 178 205 12,000  Level Washington Center
10:07AM 37.5422 -76.0764 208° Southwest 178 205 12,000  Level Washington Center
10:08AM 37.4839 -76.1178 209° Southwest 171 197 12,000  Level Washington Center
10:09AM 37.4586 -76.1361 210° Southwest 178 205 12,000  Level Washington Center
10:10AM 37.4000 -76.1747 208° Southwest 170 196 12,000  Level Washington Center
10:11AM 37.3583 -76.2033 209° Southwest 169 194 12,000  Level Washington Center
10:12AM 37.3225 -76.2264 207° Southwest 171 197 12,000  Level Washington Center
10:13AM 37.2744 -76.2625 211° Southwest 171 197 12,000  Level Washington Center
10:14AM 37.2408 -76.2858 209° Southwest 171 197 12,000  Level Washington Center
10:15AM 37.2011 -76.3167 212° Southwest 176 203 12,000  Level Washington Center
10:16AM 37.1592 -76.3475 210° Southwest 176 203 12,000  Level Washington Center
10:17AM 37.1153 -76.3758 207° Southwest 176 203 12,000  Level Washington Center
10:18AM 37.0692 -76.4042 206° Southwest 171 197 12,000  Level Washington Center
10:19AM 37.0314 -76.4322 211° Southwest 171 197 12,000  Level Washington Center
10:20AM 36.9853 -76.4603 206° Southwest 171 197 12,000  Level Washington Center
10:21AM 36.9497 -76.4964 219° Southwest 176 203 12,000  Level Washington Center
10:22AM 36.9056 -76.5244 207° Southwest 176 203 12,000  Level Washington Center
10:23AM 36.8636 -76.5525 208° Southwest 176 203 12,000  Level Washington Center
10:24AM 36.8197 -76.5803 207° Southwest 176 203 12,000  Level Washington Center
10:25AM 36.7819 -76.6086 211° Southwest 176 203 12,000  Level Washington Center
10:26AM 36.7400 -76.6339 206° Southwest 176 203 12,000  Level Washington Center
10:27AM 36.7000 -76.6644 211° Southwest 181 208 12,000  Level Washington Center
10:28AM 36.6558 -76.6922 207° Southwest 181 208 12,000  Level Washington Center
10:29AM 36.6161 -76.7203 210° Southwest 181 208 12,000  Level Washington Center
10:30AM 36.5739 -76.7481 208° Southwest 176 203 12,000  Level Washington Center
10:31AM 36.5319 -76.7783 210° Southwest 176 203 12,000  Level Washington Center
10:32AM 36.4858 -76.8114 210° Southwest 176 203 12,000  Level Washington Center
10:33AM 36.4436 -76.8392 208° Southwest 176 203 12,000  Level Washington Center
10:34AM 36.4058 -76.8642 208° Southwest 176 203 12,000  Level Washington Center
10:35AM 36.3658 -76.8972 214° Southwest 181 208 12,000  Level Washington Center
10:36AM 36.3239 -76.9247 208° Southwest 181 208 12,000  Level Washington Center
10:37AM 36.2797 -76.9472 202° Southwest 176 203 12,000  Level Washington Center
10:38AM 36.2358 -76.9747 207° Southwest 176 203 12,000  Level Washington Center
10:39AM 36.1917 -77.0022 207° Southwest 181 208 12,000  Level Washington Center
10:40AM 36.1536 -77.0428 221° Southwest 181 208 12,000  Level Washington Center
10:41AM 36.1197 -77.0833 224° Southwest 181 208 12,000  Level Washington Center
10:42AM 36.0817 -77.1211 219° Southwest 181 208 12,000  Level Washington Center
10:43AM 36.0456 -77.1642 224° Southwest 181 208 12,000  Level Washington Center
10:44AM 36.0117 -77.2044 224° Southwest 181 208 12,000  Level Washington Center
10:45AM 35.9756 -77.2475 224° Southwest 181 208 12,000  Level Washington Center
10:46AM 35.9375 -77.2853 219° Southwest 176 203 12,000  Level Washington Center
10:47AM 35.9014 -77.3256 222° Southwest 176 203 12,000  Level Washington Center
10:48AM 35.8656 -77.3631 220° Southwest 176 203 12,000  Level Washington Center
10:49AM 35.8272 -77.4033 220° Southwest 181 208 12,000  Level Washington Center
10:50AM 35.7911 -77.4433 222° Southwest 181 208 12,000  Level Washington Center
10:51AM 35.7531 -77.4833 220° Southwest 181 208 12,000  Level Washington Center
10:52AM 35.7189 -77.5261 225° Southwest 187 215 12,000  Level Washington Center
10:53AM 35.6808 -77.5636 219° Southwest 187 215 12,000  Level Washington Center
10:54AM 35.6425 -77.6061 222° Southwest 187 215 12,000  Level Washington Center
10:55AM 35.6064 -77.6433 220° Southwest 187 215 12,000  Level Washington Center
10:56AM 35.5767 -77.6758 222° Southwest 187 215 12,000  Level Washington Center
10:57AM 35.5319 -77.7233 221° Southwest 187 215 12,000  Level Washington Center
10:58AM 35.4936 -77.7656 222° Southwest 187 215 12,000  Level Washington Center
10:59AM 35.4575 -77.8028 220° Southwest 187 215 12,000  Level Washington Center
11:00AM 35.4192 -77.8453 222° Southwest 187 215 12,000  Level Washington Center
11:01AM 35.3808 -77.8847 220° Southwest 187 215 12,000 -60 Level Washington Center
11:02AM 35.3425 -77.9244 220° Southwest 187 215 11,900 -60 Descending Washington Center
11:03AM 35.3042 -77.9667 222° Southwest 187 215 11,900  Level Washington Center
11:04AM 35.2658 -78.0086 222° Southwest 187 215 12,000  Climbing Washington Center
11:05AM 35.2275 -78.0483 220° Southwest 187 215 12,000  Level Washington Center
11:06AM 35.1889 -78.0903 222° Southwest 187 215 12,000  Level Washington Center
11:07AM 35.1528 -78.1297 222° Southwest 187 215 12,000  Level Washington Center
11:08AM 35.1142 -78.1692 220° Southwest 187 215 12,000  Level Washington Center
11:09AM 35.0758 -78.2086 220° Southwest 187 215 12,000  Level Washington Center
11:10AM 35.0394 -78.2481 222° Southwest 187 215 12,000  Level Washington Center
11:11AM 35.0011 -78.2900 222° Southwest 187 215 12,000  Level Washington Center
11:12AM 34.9647 -78.3317 223° Southwest 187 215 12,000  Level Washington Center
11:13AM 34.9261 -78.3708 220° Southwest 187 215 12,000  Level Washington Center
11:14AM 34.8878 -78.4100 220° Southwest 187 215 12,000  Level Washington Center
11:15AM 34.8514 -78.4494 222° Southwest 187 215 12,000  Level Washington Center
11:16AM 34.8128 -78.4886 220° Southwest 187 215 12,000  Level Washington Center
11:17AM 34.7764 -78.5278 221° Southwest 187 215 12,000  Level Washington Center
11:18AM 34.7356 -78.5692 220° Southwest 187 215 12,000 -60 Level Washington Center
11:21AM 34.6419 -78.6683 221° Southwest 181 208 11,900 -60 Descending Jacksonville Center
11:22AM 34.6036 -78.7081 220° Southwest 181 208 11,900  Level Jacksonville Center
11:23AM 34.5653 -78.7478 220° Southwest 181 208 11,900  Level Jacksonville Center
11:24AM 34.5269 -78.7847 218° Southwest 186 214 11,900  Level Jacksonville Center
11:25AM 34.4947 -78.8242 225° Southwest 186 214 11,900  Level Jacksonville Center
11:26AM 34.4564 -78.8661 222° Southwest 186 214 11,900  Level Jacksonville Center
11:27AM 34.4200 -78.9031 220° Southwest 186 214 11,900  Level Jacksonville Center
11:28AM 34.3797 -78.9453 221° Southwest 186 214 11,900  Level Jacksonville Center
11:29AM 34.3414 -78.9847 220° Southwest 186 214 11,900  Level Jacksonville Center
11:30AM 34.3069 -79.0239 223° Southwest 186 214 11,900  Level Jacksonville Center
11:31AM 34.2664 -79.0608 217° Southwest 186 214 11,900  Level Jacksonville Center
11:32AM 34.2300 -79.1003 222° Southwest 186 214 11,900  Level Jacksonville Center
11:33AM 34.1917 -79.1369 218° Southwest 186 214 11,900  Level Jacksonville Center
11:34AM 34.1572 -79.1761 223° Southwest 186 214 11,900  Level Jacksonville Center
11:35AM 34.1167 -79.2156 219° Southwest 186 214 11,900  Level Jacksonville Center
11:36AM 34.0781 -79.2547 220° Southwest 186 214 11,900  Level Jacksonville Center
11:37AM 34.0417 -79.2914 220° Southwest 186 214 11,900  Level Jacksonville Center
11:38AM 34.0053 -79.3303 222° Southwest 186 214 11,900  Level Jacksonville Center
11:39AM 33.9664 -79.3644 216° Southwest 186 214 11,900  Level Jacksonville Center
11:40AM 33.9278 -79.4011 218° Southwest 181 208 11,900  Level Jacksonville Center
11:41AM 33.8808 -79.4381 213° Southwest 181 208 11,900  Level Jacksonville Center
11:42AM 33.8503 -79.4617 213° Southwest 173 199 11,900  Level Jacksonville Center
11:43AM 33.8117 -79.4983 218° Southwest 173 199 11,900  Level Jacksonville Center
11:44AM 33.7728 -79.5322 216° Southwest 173 199 11,900  Level Jacksonville Center
11:45AM 33.7319 -79.5661 215° Southwest 173 199 11,900  Level Jacksonville Center
11:46AM 33.6956 -79.6075 223° Southwest 173 199 11,900  Level Jacksonville Center
11:47AM 33.6569 -79.6464 220° Southwest 178 205 11,900  Level Jacksonville Center
11:48AM 33.6206 -79.6875 223° Southwest 178 205 11,900  Level Jacksonville Center
11:49AM 33.5817 -79.7264 220° Southwest 178 205 11,900  Level Jacksonville Center
11:50AM 33.5431 -79.7653 220° Southwest 178 205 11,900  Level Jacksonville Center
11:51AM 33.5064 -79.8039 221° Southwest 184 212 11,900  Level Jacksonville Center
11:52AM 33.4678 -79.8450 222° Southwest 184 212 11,900  Level Jacksonville Center
11:53AM 33.4311 -79.8836 221° Southwest 184 212 11,900  Level Jacksonville Center
11:54AM 33.3925 -79.9222 220° Southwest 184 212 11,900  Level Jacksonville Center
11:55AM 33.3517 -79.9658 222° Southwest 184 212 11,900  Level Jacksonville Center
11:56AM 33.3128 -80.0019 218° Southwest 184 212 11,900  Level Jacksonville Center
11:57AM 33.2742 -80.0406 220° Southwest 184 212 11,900  Level Jacksonville Center
11:58AM 33.2353 -80.0789 220° Southwest 184 212 11,900  Level Jacksonville Center
11:59AM 33.1944 -80.1200 220° Southwest 184 212 11,900  Level Jacksonville Center
12:00PM 33.1558 -80.1633 223° Southwest 184 212 11,900  Level Jacksonville Center
12:01PM 33.1192 -80.2017 221° Southwest 189 217 11,900  Level Jacksonville Center
12:02PM 33.0803 -80.2400 220° Southwest 188 216 11,900  Level Jacksonville Center
12:03PM 33.0433 -80.2733 217° Southwest 188 216 12,000  Climbing Jacksonville Center
12:04PM 33.0022 -80.3117 218° Southwest 182 209 12,000  Level Jacksonville Center
12:05PM 32.9678 -80.3497 223° Southwest 182 209 12,000 -120 Level Jacksonville Center
12:06PM 32.9289 -80.3881 220° Southwest 182 209 11,800 -360 Descending Jacksonville Center
12:07PM 32.8878 -80.4311 221° Southwest 187 215 11,300 -600 Descending Jacksonville Center
12:08PM 32.8447 -80.4744 220° Southwest 192 221 10,700 -600 Descending Jacksonville Center
12:09PM 32.8019 -80.5175 220° Southwest 198 228 10,100 -600 Descending Jacksonville Center
12:10PM 32.7631 -80.5581 221° Southwest 198 228 9,600 -600 Descending Jacksonville Center
12:11PM 32.7261 -80.5961 221° Southwest 193 222 9,000 -600 Descending Jacksonville Center
12:12PM 32.6872 -80.6342 219° Southwest 188 216 8,500 -540 Descending Jacksonville Center
12:13PM 32.6544 -80.6719 224° Southwest 183 211 8,000 -600 Descending Jacksonville Center
12:14PM 32.6133 -80.7150 221° Southwest 183 211 7,400 -600 Descending Jacksonville Center
12:15PM 32.5744 -80.7553 221° Southwest 183 211 6,900 -540 Descending Jacksonville Center
12:17PM 32.5052 -80.8116 220° Southwest  Level FlightAware Approximate
12:24PM 32.2543 -81.0623 220° Southwest  Level FlightAware Approximate
12:25PM 32.2182 -81.0984 220° Southwest  Level FlightAware Approximate
12:26PM 32.1821 -81.1345 220° Southwest  Level FlightAware Approximate
12:27PM 32.1460 -81.1706 220° Southwest  Level FlightAware Approximate
12:28PM 32.1167 -81.2000 220° Southwest  Level FlightAware Approximate
12:29PM 32.1276 -81.2021 220° Southwest  Level Estimated
12:30PM 32.1276 -81.2021 220° Southwest  Level Estimated
12:31PM 32.1276 -81.2021 220° Southwest  Level Estimated
12:32PM 32.1276 -81.2021 220° Southwest  Level Estimated
12:33PM 32.1276 -81.2021 220° Southwest  Level Estimated
12:34PM 32.1276 -81.2021 220° Southwest  Level Estimated
12:35PM 32.1276 -81.2021 220° Southwest  Level Estimated
12:36PM 32.1276 -81.2021 220° Southwest  Level Estimated
12:37PM 32.1276 -81.2021 220° Southwest  Level Estimated
12:38PM 32.1276 -81.2021 220° Southwest  Level Estimated
12:39PM 32.1276 -81.2021 220° Southwest  Level Estimated
12:40PM 32.1276 -81.2021 220° Southwest  Level Estimated
12:41PM 32.1276 -81.2021 220° Southwest  Level Estimated